Time;durP1;ratioP1;P1;durP2;ratioP2;P2;SDS_P1;SDS_P2;PMS_P1;PMS_P2;Temp;Humidity;BMP_temperature;BMP_pressure;BME280_temperature;BME280_humidity;BME280_pressure;Samples;Min_cycle;Max_cycle;Signal;HPM_P1;HPM_P2
2022/12/15 00:40:03;;;;;;;30.77;18.67;;;;;;;-7.16;95.77;99947.88;5083915;28;20255;-77
2022/12/15 00:42:32;;;;;;;35.55;20.02;;;;;;;-7.04;96.06;99941.75;5077905;28;20215;-75
2022/12/15 00:45:02;;;;;;;47.88;21.60;;;;;;;-7.11;95.13;99945.75;5093885;28;20569;-77
2022/12/15 00:47:32;;;;;;;30.70;18.73;;;;;;;-7.33;95.54;99946.50;5093598;28;20274;-77
2022/12/15 01:20:41;;;;;;;37.03;20.80;;;;;;;-7.29;96.15;99955.00;5116312;28;20183;-75
2022/12/15 01:23:11;;;;;;;37.25;24.42;;;;;;;-7.43;96.37;99963.06;5118558;28;20188;-76
2022/12/15 01:25:42;;;;;;;27.40;22.67;;;;;;;-7.19;96.71;99963.91;5117892;28;20226;-77
2022/12/15 01:28:18;;;;;;;49.78;21.02;;;;;;;-7.21;96.30;99961.38;5119414;28;20178;-76
2022/12/15 01:30:48;;;;;;;33.35;21.00;;;;;;;-7.11;96.42;99961.53;5100148;28;20213;-76
2022/12/15 01:33:18;;;;;;;29.00;18.02;;;;;;;-7.23;96.38;99957.19;5103937;28;20176;-75
2022/12/15 01:35:56;;;;;;;27.38;18.75;;;;;;;-7.21;95.96;99966.63;5078198;28;20242;-75
2022/12/15 01:38:27;;;;;;;33.33;17.45;;;;;;;-7.17;96.25;99962.00;5096258;28;20225;-76
2022/12/15 01:41:01;;;;;;;48.20;23.40;;;;;;;-7.08;96.26;99969.22;5095988;28;20199;-75
2022/12/15 01:43:33;;;;;;;49.50;24.73;;;;;;;-7.04;95.98;99975.94;5095435;28;20187;-74
2022/12/15 01:46:06;;;;;;;40.03;25.65;;;;;;;-7.05;96.42;99971.63;5095340;28;20287;-77
2022/12/15 01:48:40;;;;;;;34.47;20.92;;;;;;;-7.03;96.59;99970.56;5095792;28;20642;-75
2022/12/15 01:51:27;;;;;;;41.03;19.85;;;;;;;-7.03;96.45;99973.19;5094155;28;20270;-75
2022/12/15 01:54:03;;;;;;;29.08;16.60;;;;;;;-7.02;96.46;99966.16;5095487;28;20233;-75
2022/12/15 01:56:37;;;;;;;35.50;20.15;;;;;;;-7.02;96.96;99971.41;5095265;28;20697;-75
2022/12/15 01:59:11;;;;;;;43.38;23.48;;;;;;;-7.03;96.89;99970.56;5095022;28;20171;-76
2022/12/15 02:01:40;;;;;;;37.92;19.38;;;;;;;-6.95;96.76;99977.03;5077488;28;20192;-75
2022/12/15 02:04:11;;;;;;;30.85;20.63;;;;;;;-7.02;96.39;99974.84;5095501;28;20666;-74
2022/12/15 02:06:41;;;;;;;30.95;22.52;;;;;;;-6.86;96.85;99971.91;5095465;28;20264;-75
2022/12/15 02:09:11;;;;;;;47.33;22.00;;;;;;;-6.90;96.56;99965.22;5095263;28;20528;-75
2022/12/15 02:12:05;;;;;;;26.48;19.60;;;;;;;-6.85;96.50;99967.50;5095595;28;20180;-76
2022/12/15 02:14:47;;;;;;;33.63;20.20;;;;;;;-6.87;96.14;99969.44;5092746;28;20446;-74
2022/12/15 02:17:28;;;;;;;37.63;21.98;;;;;;;-6.92;95.96;99972.38;5095192;28;20184;-77
2022/12/15 02:20:33;;;;;;;30.10;18.88;;;;;;;-6.95;95.42;99971.78;5096571;28;20178;-76
2022/12/15 02:23:29;;;;;;;31.05;17.98;;;;;;;-7.01;95.66;99973.06;5096112;28;20274;-76
2022/12/15 02:26:45;;;;;;;31.42;19.52;;;;;;;-6.99;95.62;99975.59;5095724;28;20711;-76
2022/12/15 02:29:41;;;;;;;30.20;14.85;;;;;;;-7.11;96.42;99969.41;5094778;28;20188;-76
2022/12/15 02:32:15;;;;;;;25.75;20.20;;;;;;;-7.01;96.22;99983.56;5095024;28;20237;-76
2022/12/15 02:34:52;;;;;;;21.73;18.00;;;;;;;-7.01;96.28;99999.34;5076896;28;20227;-75
2022/12/15 02:37:27;;;;;;;26.38;17.70;;;;;;;-7.06;96.21;100006.75;5094970;28;20195;-75
2022/12/15 02:39:57;;;;;;;40.83;20.05;;;;;;;-7.02;96.30;100008.22;5094871;28;20693;-75
2022/12/15 02:42:28;;;;;;;40.90;18.85;;;;;;;-7.04;95.96;100018.84;5094566;28;20670;-75
2022/12/15 02:45:07;;;;;;;36.40;20.25;;;;;;;-7.05;95.61;100019.78;5096062;28;20221;-76
2022/12/15 02:47:44;;;;;;;32.20;18.10;;;;;;;-7.10;95.51;100028.97;5094853;28;20533;-75
2022/12/15 02:50:42;;;;;;;34.97;16.42;;;;;;;-7.12;95.56;100031.72;5095467;28;20191;-76
2022/12/15 02:53:22;;;;;;;27.23;13.18;;;;;;;-7.15;95.77;100033.69;5076816;28;20187;-74
2022/12/15 02:55:59;;;;;;;26.02;18.65;;;;;;;-7.12;95.47;100041.41;5095524;28;20223;-75
2022/12/15 02:58:37;;;;;;;18.85;14.23;;;;;;;-7.09;95.62;100038.53;5095057;28;20175;-75
2022/12/15 03:01:12;;;;;;;33.22;21.27;;;;;;;-7.02;95.81;100035.31;5095677;28;20193;-76
2022/12/15 03:03:46;;;;;;;26.45;14.63;;;;;;;-6.96;96.27;100043.72;5095260;28;20219;-76
2022/12/15 03:06:17;;;;;;;33.80;16.55;;;;;;;-6.84;96.60;100038.44;5094330;28;20701;-74
2022/12/15 03:08:46;;;;;;;41.67;16.95;;;;;;;-6.92;95.40;100040.75;5092224;28;20202;-78
2022/12/15 03:11:15;;;;;;;30.67;18.15;;;;;;;-7.04;95.27;100044.28;5073404;28;20173;-75
2022/12/15 03:13:44;;;;;;;28.77;17.98;;;;;;;-6.83;95.29;100042.75;5074953;28;20206;-75
2022/12/15 03:16:14;;;;;;;43.05;20.08;;;;;;;-6.76;94.69;100046.59;5056673;28;20459;-74
2022/12/15 03:18:45;;;;;;;34.15;15.85;;;;;;;-6.77;94.11;100036.16;5074529;28;20210;-75
2022/12/15 03:21:14;;;;;;;43.05;22.30;;;;;;;-6.81;94.38;100035.56;5074151;28;20255;-77
2022/12/15 03:23:43;;;;;;;27.30;19.05;;;;;;;-6.84;94.41;100035.78;5073293;28;20265;-75
2022/12/15 03:26:12;;;;;;;30.33;18.80;;;;;;;-6.70;94.35;100035.63;5073324;28;20243;-74
2022/12/15 03:28:41;;;;;;;28.77;15.25;;;;;;;-6.76;93.66;100046.59;5056510;28;20609;-76
2022/12/15 03:31:11;;;;;;;20.90;13.30;;;;;;;-6.83;94.39;100047.16;5074586;28;20216;-76
2022/12/15 03:33:40;;;;;;;54.38;24.77;;;;;;;-6.71;94.59;100044.44;5072875;28;20184;-76
2022/12/15 03:39:58;;;;;;;20.92;16.17;;;;;;;-6.89;95.84;100051.06;5056520;28;20195;-75
2022/12/15 03:45:14;;;;;;;34.95;17.02;;;;;;;-6.73;96.18;100042.91;5073018;28;20212;-76
2022/12/15 03:47:45;;;;;;;24.88;16.58;;;;;;;-6.75;96.61;100043.00;5072972;28;20246;-76
2022/12/15 03:50:16;;;;;;;28.33;15.23;;;;;;;-6.70;96.75;100043.50;5088792;28;20195;-76
2022/12/15 03:52:51;;;;;;;28.85;16.33;;;;;;;-6.68;96.95;100049.47;5094046;28;20304;-77
2022/12/15 03:55:23;;;;;;;23.35;15.32;;;;;;;-6.77;96.48;100054.56;5093242;28;20194;-75
2022/12/15 03:57:52;;;;;;;25.25;16.17;;;;;;;-7.10;96.35;100052.63;5094170;28;20175;-75
2022/12/15 04:00:23;;;;;;;38.20;20.27;;;;;;;-7.09;96.72;100060.41;5092603;28;20214;-76
2022/12/15 04:02:53;;;;;;;21.85;11.90;;;;;;;-7.00;97.46;100064.16;5093168;28;20577;-75
2022/12/15 04:05:25;;;;;;;33.05;17.25;;;;;;;-7.09;97.13;100060.41;5092698;28;20226;-76
2022/12/15 04:07:55;;;;;;;32.10;15.90;;;;;;;-6.93;97.91;100061.94;5092962;28;20195;-76
2022/12/15 04:10:28;;;;;;;20.67;13.63;;;;;;;-6.91;97.38;100074.00;5092879;28;20654;-75
2022/12/15 04:13:04;;;;;;;21.95;15.85;;;;;;;-6.92;97.64;100067.06;5088174;28;20215;-75
2022/12/15 04:15:34;;;;;;;28.83;17.13;;;;;;;-6.89;97.34;100064.22;5073975;28;20821;-74
2022/12/15 04:18:04;;;;;;;28.17;15.82;;;;;;;-7.01;97.10;100065.09;5075405;28;20690;-74
2022/12/15 04:20:33;;;;;;;30.67;16.48;;;;;;;-7.14;97.64;100059.91;5076460;28;20196;-76
2022/12/15 04:23:02;;;;;;;22.25;12.10;;;;;;;-7.03;97.38;100072.28;5077635;28;20275;-75
2022/12/15 05:32:36;;;;;;;23.73;14.43;;;;;;;-6.84;98.01;100162.06;5119070;28;20166;-76
2022/12/15 05:35:05;;;;;;;37.05;17.52;;;;;;;-6.82;97.67;100156.66;5118209;28;20223;-77
2022/12/15 05:37:35;;;;;;;30.13;17.55;;;;;;;-6.87;97.53;100154.38;5119800;28;20167;-75
2022/12/15 05:40:06;;;;;;;35.05;15.82;;;;;;;-6.89;97.49;100158.91;5119548;28;20168;-77
2022/12/15 05:42:35;;;;;;;31.10;17.77;;;;;;;-7.16;97.33;100148.53;5118680;28;20239;-76
2022/12/15 05:45:05;;;;;;;37.60;19.80;;;;;;;-7.07;97.98;100155.78;5110430;28;20697;-75
2022/12/15 05:47:35;;;;;;;31.55;15.10;;;;;;;-7.01;97.62;100159.78;5097141;28;20172;-75
2022/12/15 05:50:05;;;;;;;26.17;17.02;;;;;;;-7.06;98.21;100169.78;5097754;28;20243;-74
2022/12/15 05:52:34;;;;;;;22.48;17.30;;;;;;;-7.03;97.92;100174.84;5078758;28;20196;-73
2022/12/15 05:55:04;;;;;;;33.10;17.58;;;;;;;-7.03;97.87;100185.34;5100238;28;20213;-74
2022/12/15 05:57:33;;;;;;;39.22;16.80;;;;;;;-6.98;98.34;100193.75;5084745;28;20191;-74
2022/12/15 06:00:03;;;;;;;34.05;18.25;;;;;;;-7.05;97.63;100193.34;5106316;28;20199;-74
2022/12/15 06:02:40;;;;;;;36.55;17.85;;;;;;;-7.24;97.22;100194.72;5097440;28;20261;-74
2022/12/15 06:05:10;;;;;;;19.08;16.75;;;;;;;-7.26;97.08;100192.19;5091388;28;20208;-75
2022/12/15 06:07:39;;;;;;;26.98;13.90;;;;;;;-7.46;96.72;100187.50;5090517;28;20192;-74
2022/12/15 06:10:09;;;;;;;27.10;16.63;;;;;;;-7.38;96.88;100221.97;5092973;28;20196;-75
2022/12/15 06:12:38;;;;;;;34.95;16.00;;;;;;;-7.55;96.23;100223.09;5093837;28;20251;-75
2022/12/15 06:15:08;;;;;;;28.80;19.38;;;;;;;-7.30;97.06;100218.81;5094710;28;20764;-76
2022/12/15 06:17:38;;;;;;;39.78;15.38;;;;;;;-7.30;96.34;100221.44;5095398;28;20210;-74
2022/12/15 06:20:08;;;;;;;36.40;19.17;;;;;;;-7.36;96.04;100214.00;5096032;28;20168;-75
2022/12/15 06:22:37;;;;;;;28.52;14.75;;;;;;;-7.34;95.44;100210.28;5094318;28;20176;-75
2022/12/15 06:25:07;;;;;;;23.88;17.83;;;;;;;-7.53;95.52;100213.34;5090846;28;20212;-74
2022/12/15 06:27:37;;;;;;;34.05;12.32;;;;;;;-7.51;95.13;100221.13;5087891;28;20187;-76
2022/12/15 06:30:07;;;;;;;32.78;15.73;;;;;;;-7.52;95.36;100222.91;5084144;28;20195;-75
2022/12/15 06:32:36;;;;;;;38.67;17.73;;;;;;;-7.35;95.05;100215.66;5081037;28;20200;-76
2022/12/15 06:35:08;;;;;;;20.23;15.88;;;;;;;-7.61;94.93;100209.56;5061307;28;20255;-74
2022/12/15 06:37:37;;;;;;;29.15;17.17;;;;;;;-7.54;95.75;100216.91;5085536;28;20183;-75
2022/12/15 06:40:07;;;;;;;16.77;12.60;;;;;;;-7.41;95.90;100211.69;5086845;28;20216;-76
2022/12/15 06:42:36;;;;;;;31.50;11.73;;;;;;;-7.52;96.04;100215.03;5086063;28;20172;-75
2022/12/15 06:45:07;;;;;;;29.48;17.80;;;;;;;-7.47;95.66;100212.09;5086035;28;20253;-77
2022/12/15 06:47:36;;;;;;;33.72;15.93;;;;;;;-7.49;95.29;100220.06;5076005;28;20199;-76
2022/12/15 06:50:07;;;;;;;24.90;13.65;;;;;;;-7.51;95.78;100232.50;5079094;28;20555;-75
2022/12/15 06:52:36;;;;;;;26.40;19.63;;;;;;;-7.50;95.51;100231.53;5094200;28;20226;-75
2022/12/15 06:55:06;;;;;;;25.13;15.90;;;;;;;-7.53;95.60;100237.00;5094619;28;20253;-76
2022/12/15 06:57:36;;;;;;;40.58;16.80;;;;;;;-7.51;94.80;100248.25;5094426;28;20197;-76
2022/12/15 07:00:06;;;;;;;18.05;12.70;;;;;;;-7.57;94.80;100246.03;5094638;28;20222;-76
2022/12/15 07:02:35;;;;;;;28.10;16.05;;;;;;;-7.84;95.43;100249.66;5097109;28;20172;-75
2022/12/15 07:05:05;;;;;;;42.10;16.08;;;;;;;-7.89;95.42;100263.09;5095468;28;20226;-75
2022/12/15 07:07:36;;;;;;;17.15;11.32;;;;;;;-7.74;96.33;100253.34;5095492;28;20187;-76
2022/12/15 07:10:06;;;;;;;25.75;16.92;;;;;;;-7.79;95.66;100269.41;5074244;28;20212;-76
2022/12/15 07:12:35;;;;;;;34.60;15.35;;;;;;;-7.77;95.83;100277.19;5074090;28;20582;-75
2022/12/15 07:15:05;;;;;;;21.88;13.55;;;;;;;-7.63;95.73;100283.22;5075292;28;20204;-76
2022/12/15 07:17:34;;;;;;;20.98;13.88;;;;;;;-7.60;95.47;100284.81;5077247;28;20325;-76
2022/12/15 07:20:08;;;;;;;25.67;14.45;;;;;;;-7.56;95.43;100297.66;5084205;28;20550;-75
2022/12/15 07:22:38;;;;;;;19.35;11.07;;;;;;;-7.75;95.30;100294.56;5085044;28;20573;-75
2022/12/15 07:25:09;;;;;;;17.30;14.77;;;;;;;-7.78;95.34;100291.25;5082199;28;20563;-75
2022/12/15 07:27:38;;;;;;;32.45;14.15;;;;;;;-7.54;94.91;100295.75;5058687;28;20196;-77
2022/12/15 07:30:10;;;;;;;31.60;18.35;;;;;;;-7.60;94.72;100305.84;5064458;28;20198;-76
2022/12/15 07:35:55;;;;;;;16.95;9.82;;;;;;;-7.99;94.46;100317.97;5080795;28;20218;-78
2022/12/15 07:38:30;;;;;;;23.75;11.57;;;;;;;-7.76;95.29;100319.13;5082872;28;20240;-76
2022/12/15 07:41:02;;;;;;;23.63;13.52;;;;;;;-7.69;94.82;100312.53;5073190;28;20192;-75
2022/12/15 07:43:31;;;;;;;25.73;12.68;;;;;;;-7.83;95.26;100304.69;5073190;28;20191;-75
2022/12/15 07:46:02;;;;;;;31.27;14.82;;;;;;;-7.86;95.25;100315.41;5055614;28;20564;-75
2022/12/15 07:48:31;;;;;;;19.02;13.35;;;;;;;-7.71;94.81;100322.31;5074001;28;20191;-75
2022/12/15 07:51:04;;;;;;;28.67;12.70;;;;;;;-7.66;94.55;100316.75;5074657;28;20191;-77
2022/12/15 07:53:44;;;;;;;22.90;13.18;;;;;;;-7.42;94.33;100327.41;5074478;28;20215;-77
2022/12/15 07:56:14;;;;;;;25.27;14.77;;;;;;;-7.50;93.30;100325.28;5074323;28;20215;-76
2022/12/15 07:58:43;;;;;;;21.77;15.02;;;;;;;-7.56;92.50;100329.19;5076856;28;20659;-75
2022/12/15 08:01:14;;;;;;;21.70;14.75;;;;;;;-7.48;91.70;100340.03;5077705;28;20177;-76
2022/12/15 08:03:43;;;;;;;17.38;10.77;;;;;;;-7.47;91.67;100344.34;5063424;28;20194;-76
2022/12/15 08:06:15;;;;;;;16.75;14.98;;;;;;;-7.42;91.49;100341.41;5098383;28;20199;-77
2022/12/15 08:08:46;;;;;;;17.02;11.65;;;;;;;-7.33;91.40;100346.03;5098068;28;20203;-77
2022/12/15 08:11:20;;;;;;;19.00;9.43;;;;;;;-7.30;92.04;100344.97;5097660;28;20175;-76
2022/12/15 08:13:50;;;;;;;19.45;12.80;;;;;;;-7.06;92.08;100338.06;5097863;28;20567;-75
2022/12/15 08:16:39;;;;;;;23.30;13.43;;;;;;;-6.81;89.32;100342.50;5083250;28;20412;-76
2022/12/15 08:19:12;;;;;;;33.60;13.90;;;;;;;-7.02;88.12;100344.84;5090632;28;20570;-75
2022/12/15 08:21:42;;;;;;;30.58;13.70;;;;;;;-7.05;88.74;100345.03;5077540;28;20276;-76
2022/12/15 08:24:13;;;;;;;32.45;13.15;;;;;;;-6.89;88.27;100353.56;5088753;28;20275;-77
2022/12/15 08:26:44;;;;;;;27.02;11.63;;;;;;;-6.89;88.82;100361.47;5090431;28;20218;-77
2022/12/15 08:29:18;;;;;;;31.17;13.52;;;;;;;-6.94;88.51;100360.94;5079759;28;20320;-76
2022/12/15 08:32:07;;;;;;;23.45;16.13;;;;;;;-6.80;89.12;100357.34;5097317;28;20672;-76
2022/12/15 08:34:38;;;;;;;26.27;17.35;;;;;;;-6.61;88.82;100358.63;5097864;28;20688;-77
2022/12/15 08:37:07;;;;;;;27.33;13.02;;;;;;;-6.56;87.87;100368.81;5098109;28;20619;-75
2022/12/15 08:39:38;;;;;;;25.70;15.93;;;;;;;-6.46;87.71;100369.88;5078656;28;20195;-76
2022/12/15 08:42:07;;;;;;;24.38;14.25;;;;;;;-6.44;87.52;100373.25;5097422;28;20549;-76
2022/12/15 08:44:36;;;;;;;27.25;16.40;;;;;;;-6.32;87.24;100367.09;5080428;28;20205;-75
2022/12/15 08:47:06;;;;;;;30.88;14.75;;;;;;;-6.10;87.52;100363.81;5099402;28;20662;-76
2022/12/15 08:49:35;;;;;;;28.88;15.68;;;;;;;-6.11;85.81;100367.38;5100453;28;20180;-75
2022/12/15 08:52:05;;;;;;;22.63;13.10;;;;;;;-6.27;85.45;100372.03;5100723;28;20279;-76
2022/12/15 08:54:34;;;;;;;23.02;14.02;;;;;;;-6.20;85.78;100382.06;5098275;28;20255;-77
2022/12/15 08:57:05;;;;;;;19.92;14.70;;;;;;;-6.25;85.43;100385.97;5097242;28;20199;-75
2022/12/15 08:59:41;;;;;;;19.17;10.25;;;;;;;-6.21;85.42;100379.53;5102839;28;20178;-77
2022/12/15 09:02:12;;;;;;;25.52;14.32;;;;;;;-6.04;84.57;100386.22;5100605;28;20176;-77
2022/12/15 09:04:42;;;;;;;18.63;11.63;;;;;;;-6.06;84.83;100373.19;5081195;28;20246;-76
2022/12/15 09:07:12;;;;;;;28.63;14.30;;;;;;;-5.85;84.89;100376.84;5083389;28;20222;-79
2022/12/15 10:22:36;;;;;;;29.52;15.35;;;;;;;-3.31;72.95;100408.19;4955160;29;20206;-75
2022/12/15 10:25:16;;;;;;;18.10;11.80;;;;;;;-3.38;72.27;100409.63;4986975;28;20254;-73
2022/12/15 10:28:29;;;;;;;19.15;12.32;;;;;;;-3.48;72.52;100413.16;5077426;28;20172;-75
2022/12/15 10:31:02;;;;;;;28.65;16.10;;;;;;;-3.27;72.28;100412.25;5077465;28;20186;-75
2022/12/15 10:33:35;;;;;;;33.92;14.38;;;;;;;-3.05;72.59;100418.44;5058611;28;20192;-74
2022/12/15 10:36:10;;;;;;;38.13;18.73;;;;;;;-2.89;72.11;100418.81;5076293;28;20204;-74
2022/12/15 10:38:44;;;;;;;30.73;14.45;;;;;;;-2.92;70.67;100422.59;5075959;28;20171;-74
2022/12/15 10:41:16;;;;;;;23.38;18.00;;;;;;;-3.01;70.55;100417.22;5074861;28;20606;-75
2022/12/15 10:43:46;;;;;;;35.88;15.52;;;;;;;-3.09;71.64;100412.53;5074621;28;20180;-75
2022/12/15 10:46:20;;;;;;;30.90;14.40;;;;;;;-2.98;71.65;100409.00;5075496;28;20264;-75
2022/12/15 10:48:51;;;;;;;27.83;15.43;;;;;;;-2.60;71.49;100411.91;5075180;28;20184;-74
2022/12/15 10:51:27;;;;;;;32.95;18.13;;;;;;;-2.43;69.42;100410.50;5075015;28;20508;-75
2022/12/15 10:54:08;;;;;;;27.77;16.20;;;;;;;-2.15;70.21;100411.63;5083264;28;20187;-77
2022/12/15 10:56:48;;;;;;;28.13;13.98;;;;;;;-2.20;69.00;100409.38;5095667;28;20207;-75
2022/12/15 10:59:29;;;;;;;23.92;16.95;;;;;;;-2.27;68.25;100424.94;5094947;28;20187;-73
2022/12/15 11:02:26;;;;;;;29.38;14.57;;;;;;;-2.57;69.63;100429.38;5095073;28;20642;-75
2022/12/15 11:04:57;;;;;;;23.02;14.75;;;;;;;-2.49;70.30;100422.47;5094196;28;20616;-75
2022/12/15 11:07:32;;;;;;;21.92;15.05;;;;;;;-2.34;69.56;100428.25;5094292;28;20172;-75
2022/12/15 11:10:15;;;;;;;24.52;14.07;;;;;;;-2.21;69.23;100435.03;5094457;28;20210;-75
2022/12/15 11:12:53;;;;;;;33.15;16.88;;;;;;;-2.21;69.51;100442.97;5094763;28;20172;-76
2022/12/15 11:15:51;;;;;;;38.20;16.77;;;;;;;-2.26;69.64;100441.69;5094582;28;20208;-75
2022/12/15 11:18:38;;;;;;;31.30;17.55;;;;;;;-1.99;69.30;100433.19;5095334;28;20195;-77
2022/12/15 11:21:14;;;;;;;33.50;17.00;;;;;;;-1.79;69.30;100441.06;5100336;28;20193;-74
2022/12/15 11:23:55;;;;;;;36.38;19.63;;;;;;;-1.72;68.06;100443.19;5099371;28;20186;-74
2022/12/15 11:26:36;;;;;;;35.80;16.45;;;;;;;-1.68;67.92;100448.09;5098997;28;20227;-75
2022/12/15 11:29:17;;;;;;;33.13;17.83;;;;;;;-1.77;68.64;100446.25;5094911;28;20199;-75
2022/12/15 11:31:48;;;;;;;30.35;16.80;;;;;;;-1.81;68.41;100450.16;5096415;28;20605;-74
2022/12/15 11:34:20;;;;;;;38.58;14.60;;;;;;;-1.79;68.65;100453.47;5097402;28;20184;-74
2022/12/15 11:37:12;;;;;;;29.08;16.52;;;;;;;-1.90;69.02;100441.19;5097847;28;20219;-74
2022/12/15 11:39:58;;;;;;;23.30;15.23;;;;;;;-1.69;68.45;100443.75;5097385;28;20171;-75
2022/12/15 11:42:43;;;;;;;30.08;19.70;;;;;;;-1.52;68.70;100435.16;5094525;28;20221;-75
2022/12/15 11:45:23;;;;;;;18.77;13.10;;;;;;;-1.42;68.24;100436.03;5094954;28;20556;-76
2022/12/15 11:48:00;;;;;;;29.63;16.55;;;;;;;-1.44;69.35;100440.63;5094967;28;20883;-75
2022/12/15 11:50:33;;;;;;;24.58;16.55;;;;;;;-1.36;68.71;100443.44;5094852;28;20266;-77
2022/12/15 11:53:23;;;;;;;26.38;16.20;;;;;;;-1.26;68.78;100445.28;5096329;28;20182;-76
2022/12/15 11:55:59;;;;;;;20.65;12.90;;;;;;;-1.12;68.26;100437.75;5094126;28;20219;-75
2022/12/15 11:58:51;;;;;;;30.58;16.65;;;;;;;-1.10;67.77;100434.94;5090899;28;20184;-75
2022/12/15 12:01:38;;;;;;;31.40;14.50;;;;;;;-1.26;69.02;100439.97;5090806;28;20207;-74
2022/12/15 12:04:20;;;;;;;22.45;15.07;;;;;;;-1.02;69.40;100435.09;5089968;28;20164;-73
2022/12/15 12:06:59;;;;;;;28.88;16.23;;;;;;;-1.06;68.42;100434.50;5092789;28;20230;-75
2022/12/15 12:09:35;;;;;;;27.98;15.07;;;;;;;-1.15;69.08;100429.19;5092620;28;20176;-75
2022/12/15 12:12:18;;;;;;;36.15;16.42;;;;;;;-1.10;68.54;100419.84;5093377;28;20240;-74
2022/12/15 12:15:05;;;;;;;28.25;15.88;;;;;;;-1.08;68.75;100417.06;5080272;28;20212;-75
2022/12/15 12:17:41;;;;;;;36.88;16.25;;;;;;;-1.01;69.67;100424.31;5075420;28;20622;-75
2022/12/15 12:20:17;;;;;;;26.45;17.58;;;;;;;-1.27;71.23;100412.56;5086390;28;20259;-74
2022/12/15 12:22:57;;;;;;;31.25;16.35;;;;;;;-1.04;69.70;100421.94;5085578;28;20176;-75
2022/12/15 12:25:27;;;;;;;27.65;17.45;;;;;;;-1.22;72.14;100415.66;5077789;28;20251;-74
2022/12/15 12:28:00;;;;;;;22.05;14.02;;;;;;;-1.22;70.37;100425.44;5075659;28;20230;-75
2022/12/15 12:30:38;;;;;;;21.38;13.65;;;;;;;-1.27;70.66;100423.19;5074896;28;20172;-74
2022/12/15 12:33:12;;;;;;;34.10;16.20;;;;;;;-1.29;70.33;100421.63;5074919;28;20176;-75
2022/12/15 12:35:48;;;;;;;19.67;13.57;;;;;;;-1.31;71.11;100422.59;5075131;28;20203;-73
2022/12/15 12:38:23;;;;;;;23.00;14.60;;;;;;;-1.15;70.27;100427.38;5074940;28;20282;-75
2022/12/15 12:41:01;;;;;;;20.98;16.30;;;;;;;-0.95;69.92;100422.91;5091340;28;20187;-76
2022/12/15 12:43:36;;;;;;;30.15;15.63;;;;;;;-0.94;70.46;100422.78;5077072;28;20191;-75
2022/12/15 12:46:15;;;;;;;26.52;15.10;;;;;;;-0.96;69.78;100422.06;5098751;28;20278;-74
2022/12/15 12:48:50;;;;;;;28.95;15.15;;;;;;;-1.04;70.57;100434.38;5098465;28;20210;-76
2022/12/15 12:51:25;;;;;;;25.42;16.95;;;;;;;-1.17;70.61;100444.44;5084113;28;20199;-76
2022/12/15 12:53:54;;;;;;;34.55;14.75;;;;;;;-1.22;71.04;100442.19;5077760;28;20180;-75
2022/12/15 12:56:36;;;;;;;26.05;15.07;;;;;;;-1.31;71.89;100446.50;5077103;28;20204;-75
2022/12/15 12:59:21;;;;;;;22.73;13.07;;;;;;;-1.33;71.62;100440.50;5084373;28;20278;-75
2022/12/15 13:01:53;;;;;;;27.40;12.70;;;;;;;-1.26;71.88;100450.59;5087644;28;20206;-74
2022/12/15 13:04:39;;;;;;;25.88;15.05;;;;;;;-1.07;72.83;100455.91;5088429;28;20199;-74
2022/12/15 13:07:31;;;;;;;24.85;14.40;;;;;;;-1.33;72.92;100451.13;5077243;28;20179;-77
2022/12/15 13:10:17;;;;;;;15.48;11.02;;;;;;;-1.49;72.62;100461.41;5077222;28;20191;-76
2022/12/15 13:12:51;;;;;;;23.05;13.10;;;;;;;-1.41;73.72;100447.47;5077492;28;20173;-75
2022/12/15 13:15:42;;;;;;;24.50;13.32;;;;;;;-1.46;73.29;100450.53;5077691;28;20261;-74
2022/12/15 13:18:16;;;;;;;22.02;15.35;;;;;;;-1.52;73.59;100444.94;5060296;28;20261;-77
2022/12/15 13:20:46;;;;;;;22.13;16.70;;;;;;;-1.50;74.06;100443.81;5077318;28;20187;-75
2022/12/15 13:23:40;;;;;;;25.90;12.77;;;;;;;-1.42;74.59;100441.31;5059954;28;20199;-75
2022/12/15 13:26:14;;;;;;;32.08;14.98;;;;;;;-1.35;74.09;100426.50;5080795;28;20254;-76
2022/12/15 13:28:48;;;;;;;26.30;14.85;;;;;;;-1.08;73.46;100425.88;5098990;28;20191;-75
2022/12/15 13:31:40;;;;;;;24.52;14.07;;;;;;;-1.05;73.21;100427.38;5101745;28;20266;-74
2022/12/15 13:34:28;;;;;;;22.05;13.50;;;;;;;-1.19;73.69;100436.59;5099573;28;20213;-75
2022/12/15 13:37:01;;;;;;;21.02;13.10;;;;;;;-1.13;73.43;100443.19;5101578;28;20195;-75
2022/12/15 13:39:50;;;;;;;21.90;12.90;;;;;;;-1.25;74.11;100446.94;5100511;28;20191;-75
2022/12/15 13:42:33;;;;;;;19.83;13.00;;;;;;;-1.25;73.56;100441.63;5099048;28;20193;-76
2022/12/15 13:45:35;;;;;;;18.27;13.43;;;;;;;-1.13;74.41;100445.84;5097950;28;20217;-75
2022/12/15 13:48:34;;;;;;;25.17;15.13;;;;;;;-1.38;76.02;100447.19;5082145;28;20642;-74
2022/12/15 13:51:11;;;;;;;24.20;14.35;;;;;;;-1.31;75.72;100451.81;5096519;28;20670;-75
2022/12/15 13:53:46;;;;;;;21.48;14.27;;;;;;;-1.40;76.06;100442.00;5107912;28;20194;-75
2022/12/15 13:56:49;;;;;;;18.05;12.75;;;;;;;-1.35;76.04;100446.91;5108232;28;20222;-74
2022/12/15 13:59:41;;;;;;;20.88;13.80;;;;;;;-1.23;76.03;100439.69;5100208;28;20227;-74
2022/12/15 14:02:25;;;;;;;30.33;13.35;;;;;;;-1.37;76.32;100449.72;5082906;28;20634;-75
2022/12/15 14:05:13;;;;;;;18.95;13.95;;;;;;;-1.35;77.58;100453.06;5107776;28;20221;-75
2022/12/15 14:07:45;;;;;;;32.72;17.45;;;;;;;-1.56;78.96;100454.97;5108308;28;20262;-75
2022/12/15 14:10:24;;;;;;;24.98;16.45;;;;;;;-1.59;78.62;100457.03;5102030;28;20260;-74
2022/12/15 14:12:58;;;;;;;21.70;13.30;;;;;;;-1.66;77.83;100451.47;5095763;28;20176;-74
2022/12/15 14:15:30;;;;;;;20.40;14.25;;;;;;;-1.78;78.55;100449.88;5077338;28;20226;-74
2022/12/15 14:18:02;;;;;;;30.00;17.27;;;;;;;-1.76;79.28;100448.78;5093977;28;20211;-74
2022/12/15 14:20:38;;;;;;;29.52;16.52;;;;;;;-1.77;80.05;100440.94;5095706;28;20197;-75
2022/12/15 14:23:18;;;;;;;26.95;15.07;;;;;;;-1.90;80.74;100445.66;5089793;28;20192;-76
2022/12/15 14:25:55;;;;;;;27.95;16.52;;;;;;;-1.99;80.42;100446.44;5081209;28;20230;-75
2022/12/15 14:28:31;;;;;;;26.88;15.25;;;;;;;-2.03;80.02;100445.03;5095760;28;20196;-77
2022/12/15 14:31:04;;;;;;;27.75;15.85;;;;;;;-1.91;81.36;100449.25;5094940;28;20210;-77
2022/12/15 14:33:37;;;;;;;33.50;15.75;;;;;;;-2.13;80.83;100446.78;5095809;28;20176;-75
2022/12/15 14:36:10;;;;;;;25.42;14.27;;;;;;;-2.12;81.17;100454.59;5095039;28;20689;-75
2022/12/15 14:38:44;;;;;;;28.75;15.38;;;;;;;-2.25;81.93;100456.63;5076299;28;20275;-77
2022/12/15 14:41:21;;;;;;;26.45;15.65;;;;;;;-2.28;82.67;100456.91;5095527;28;20638;-75
2022/12/15 14:43:56;;;;;;;35.30;14.85;;;;;;;-2.37;83.41;100460.34;5095755;28;20653;-77
2022/12/15 14:46:48;;;;;;;19.08;12.48;;;;;;;-2.47;84.26;100446.19;5094711;28;20206;-75
2022/12/15 14:49:22;;;;;;;25.10;13.60;;;;;;;-2.60;84.53;100454.31;5094922;28;20650;-74
2022/12/15 14:51:56;;;;;;;43.50;18.75;;;;;;;-2.58;84.12;100457.69;5062328;28;20196;-75
2022/12/15 14:54:32;;;;;;;35.33;18.90;;;;;;;-2.68;85.29;100454.97;5093855;28;20252;-75
2022/12/15 14:57:03;;;;;;;30.83;13.35;;;;;;;-2.79;85.69;100456.81;5094576;28;20163;-75
2022/12/15 14:59:35;;;;;;;22.92;15.55;;;;;;;-2.76;86.63;100456.56;5087757;28;20689;-76
2022/12/15 15:02:13;;;;;;;30.58;15.82;;;;;;;-2.89;87.01;100455.91;5074024;28;20178;-76
2022/12/15 15:04:42;;;;;;;35.70;15.55;;;;;;;-2.77;86.74;100461.03;5074340;28;20934;-74
2022/12/15 15:07:18;;;;;;;27.40;15.77;;;;;;;-2.68;86.53;100454.97;5073496;28;20246;-75
2022/12/15 15:09:47;;;;;;;29.25;15.85;;;;;;;-2.58;86.59;100459.47;5074856;28;20172;-75
2022/12/15 15:12:19;;;;;;;21.42;16.33;;;;;;;-2.64;86.32;100463.47;5075106;28;20195;-76
2022/12/15 15:14:53;;;;;;;35.17;15.98;;;;;;;-2.71;86.39;100459.69;5075029;28;20746;-74
2022/12/15 15:17:29;;;;;;;34.65;17.45;;;;;;;-2.57;87.11;100456.72;5074370;28;20176;-75
2022/12/15 15:20:01;;;;;;;34.40;16.27;;;;;;;-2.69;86.16;100468.31;5075956;28;20609;-76
2022/12/15 15:22:39;;;;;;;35.38;18.45;;;;;;;-2.85;86.96;100462.59;5075665;28;20176;-74
2022/12/15 15:25:37;;;;;;;34.97;16.35;;;;;;;-2.81;87.39;100469.34;5075810;28;20306;-74